sensor_id;sensor_type;location;lat;lon;timestamp;P1;durP1;ratioP1;P2;durP2;ratioP2
6475;SDS011;3271;51.910;5.840;2023-03-20T00:00:49;11.18;;;8.15;;
6475;SDS011;3271;51.910;5.840;2023-03-20T00:03:15;11.45;;;7.20;;
6475;SDS011;3271;51.910;5.840;2023-03-20T00:05:41;10.57;;;7.85;;
6475;SDS011;3271;51.910;5.840;2023-03-20T00:08:07;10.73;;;7.78;;
6475;SDS011;3271;51.910;5.840;2023-03-20T00:10:40;9.45;;;7.72;;
6475;SDS011;3271;51.910;5.840;2023-03-20T00:13:07;11.98;;;8.75;;
6475;SDS011;3271;51.910;5.840;2023-03-20T00:15:36;9.82;;;8.15;;
6475;SDS011;3271;51.910;5.840;2023-03-20T00:18:03;11.20;;;9.27;;
6475;SDS011;3271;51.910;5.840;2023-03-20T00:20:34;10.25;;;7.63;;
6475;SDS011;3271;51.910;5.840;2023-03-20T00:23:00;9.90;;;8.48;;
6475;SDS011;3271;51.910;5.840;2023-03-20T00:25:26;10.10;;;8.38;;
6475;SDS011;3271;51.910;5.840;2023-03-20T00:27:53;9.63;;;7.18;;
6475;SDS011;3271;51.910;5.840;2023-03-20T00:30:21;9.80;;;7.45;;
6475;SDS011;3271;51.910;5.840;2023-03-20T00:32:48;9.48;;;7.07;;
6475;SDS011;3271;51.910;5.840;2023-03-20T00:35:25;10.57;;;7.35;;
6475;SDS011;3271;51.910;5.840;2023-03-20T00:37:52;9.98;;;7.35;;
6475;SDS011;3271;51.910;5.840;2023-03-20T00:40:18;8.27;;;7.32;;
6475;SDS011;3271;51.910;5.840;2023-03-20T00:42:45;9.95;;;7.47;;
6475;SDS011;3271;51.910;5.840;2023-03-20T00:45:13;8.50;;;6.78;;
6475;SDS011;3271;51.910;5.840;2023-03-20T00:47:40;10.20;;;7.70;;
6475;SDS011;3271;51.910;5.840;2023-03-20T00:50:16;9.63;;;7.57;;
6475;SDS011;3271;51.910;5.840;2023-03-20T00:52:43;11.57;;;8.90;;
6475;SDS011;3271;51.910;5.840;2023-03-20T00:55:09;12.75;;;9.98;;
6475;SDS011;3271;51.910;5.840;2023-03-20T00:57:37;13.30;;;10.10;;
6475;SDS011;3271;51.910;5.840;2023-03-20T01:00:12;10.43;;;9.32;;
6475;SDS011;3271;51.910;5.840;2023-03-20T01:02:44;15.35;;;10.93;;
6475;SDS011;3271;51.910;5.840;2023-03-20T01:05:10;15.15;;;10.63;;
6475;SDS011;3271;51.910;5.840;2023-03-20T01:07:37;14.10;;;10.70;;
6475;SDS011;3271;51.910;5.840;2023-03-20T01:10:03;12.00;;;9.60;;
6475;SDS011;3271;51.910;5.840;2023-03-20T01:12:30;11.70;;;8.75;;
6475;SDS011;3271;51.910;5.840;2023-03-20T01:14:56;11.32;;;8.43;;
6475;SDS011;3271;51.910;5.840;2023-03-20T01:17:23;14.93;;;9.00;;
6475;SDS011;3271;51.910;5.840;2023-03-20T01:19:49;11.25;;;7.88;;
6475;SDS011;3271;51.910;5.840;2023-03-20T01:22:16;11.80;;;7.80;;
6475;SDS011;3271;51.910;5.840;2023-03-20T01:24:42;12.43;;;7.75;;
6475;SDS011;3271;51.910;5.840;2023-03-20T01:27:12;11.73;;;8.55;;
6475;SDS011;3271;51.910;5.840;2023-03-20T01:29:38;12.98;;;8.45;;
6475;SDS011;3271;51.910;5.840;2023-03-20T01:32:07;10.38;;;7.75;;
6475;SDS011;3271;51.910;5.840;2023-03-20T01:34:34;11.30;;;7.45;;
6475;SDS011;3271;51.910;5.840;2023-03-20T01:37:00;10.20;;;7.72;;
6475;SDS011;3271;51.910;5.840;2023-03-20T01:39:32;11.73;;;8.20;;
6475;SDS011;3271;51.910;5.840;2023-03-20T01:41:59;11.70;;;7.55;;
6475;SDS011;3271;51.910;5.840;2023-03-20T01:44:28;11.50;;;8.10;;
6475;SDS011;3271;51.910;5.840;2023-03-20T01:46:54;10.93;;;7.28;;
6475;SDS011;3271;51.910;5.840;2023-03-20T01:51:46;12.48;;;7.40;;
6475;SDS011;3271;51.910;5.840;2023-03-20T01:54:14;9.52;;;7.35;;
6475;SDS011;3271;51.910;5.840;2023-03-20T01:56:43;11.35;;;7.47;;
6475;SDS011;3271;51.910;5.840;2023-03-20T01:59:15;11.43;;;7.20;;
6475;SDS011;3271;51.910;5.840;2023-03-20T02:01:43;9.70;;;6.20;;
6475;SDS011;3271;51.910;5.840;2023-03-20T02:04:10;8.15;;;6.60;;
6475;SDS011;3271;51.910;5.840;2023-03-20T02:06:37;10.02;;;6.78;;
6475;SDS011;3271;51.910;5.840;2023-03-20T02:09:04;9.15;;;5.90;;
6475;SDS011;3271;51.910;5.840;2023-03-20T02:11:30;9.38;;;6.07;;
6475;SDS011;3271;51.910;5.840;2023-03-20T02:13:57;8.38;;;5.82;;
6475;SDS011;3271;51.910;5.840;2023-03-20T02:16:24;8.70;;;5.97;;
6475;SDS011;3271;51.910;5.840;2023-03-20T02:18:50;8.20;;;5.47;;
6475;SDS011;3271;51.910;5.840;2023-03-20T02:33:48;6.80;;;4.75;;
6475;SDS011;3271;51.910;5.840;2023-03-20T02:36:36;6.45;;;4.57;;
6475;SDS011;3271;51.910;5.840;2023-03-20T02:41:37;6.45;;;4.50;;
6475;SDS011;3271;51.910;5.840;2023-03-20T02:44:22;7.10;;;4.22;;
6475;SDS011;3271;51.910;5.840;2023-03-20T02:46:54;5.75;;;4.10;;
6475;SDS011;3271;51.910;5.840;2023-03-20T02:49:30;5.57;;;4.03;;
6475;SDS011;3271;51.910;5.840;2023-03-20T02:52:05;7.78;;;3.95;;
6475;SDS011;3271;51.910;5.840;2023-03-20T02:54:38;5.70;;;3.83;;
6475;SDS011;3271;51.910;5.840;2023-03-20T03:04:33;6.85;;;4.82;;
6475;SDS011;3271;51.910;5.840;2023-03-20T03:07:00;8.90;;;5.53;;
6475;SDS011;3271;51.910;5.840;2023-03-20T03:09:29;5.35;;;4.53;;
6475;SDS011;3271;51.910;5.840;2023-03-20T03:12:00;7.38;;;5.00;;
6475;SDS011;3271;51.910;5.840;2023-03-20T03:14:29;6.75;;;4.90;;
6475;SDS011;3271;51.910;5.840;2023-03-20T03:16:57;6.13;;;5.15;;
6475;SDS011;3271;51.910;5.840;2023-03-20T03:19:25;5.97;;;5.10;;
6475;SDS011;3271;51.910;5.840;2023-03-20T03:21:53;7.47;;;5.75;;
6475;SDS011;3271;51.910;5.840;2023-03-20T03:24:26;6.22;;;4.93;;
6475;SDS011;3271;51.910;5.840;2023-03-20T03:26:53;7.28;;;5.10;;
6475;SDS011;3271;51.910;5.840;2023-03-20T03:29:20;6.97;;;4.53;;
6475;SDS011;3271;51.910;5.840;2023-03-20T03:31:46;9.40;;;5.50;;
6475;SDS011;3271;51.910;5.840;2023-03-20T03:34:14;8.13;;;5.10;;
6475;SDS011;3271;51.910;5.840;2023-03-20T03:42:07;9.13;;;5.55;;
6475;SDS011;3271;51.910;5.840;2023-03-20T03:44:51;5.97;;;5.30;;
6475;SDS011;3271;51.910;5.840;2023-03-20T03:47:20;7.68;;;5.68;;
6475;SDS011;3271;51.910;5.840;2023-03-20T03:49:50;11.40;;;6.55;;
6475;SDS011;3271;51.910;5.840;2023-03-20T03:52:20;9.48;;;5.95;;
6475;SDS011;3271;51.910;5.840;2023-03-20T03:54:50;7.85;;;6.50;;
6475;SDS011;3271;51.910;5.840;2023-03-20T03:57:19;13.57;;;8.45;;
6475;SDS011;3271;51.910;5.840;2023-03-20T03:59:47;13.20;;;8.02;;
6475;SDS011;3271;51.910;5.840;2023-03-20T04:02:13;16.73;;;10.27;;
6475;SDS011;3271;51.910;5.840;2023-03-20T04:04:42;15.60;;;10.32;;
6475;SDS011;3271;51.910;5.840;2023-03-20T04:07:08;15.07;;;9.77;;
6475;SDS011;3271;51.910;5.840;2023-03-20T04:09:35;13.18;;;9.25;;
6475;SDS011;3271;51.910;5.840;2023-03-20T04:12:01;13.35;;;9.55;;
6475;SDS011;3271;51.910;5.840;2023-03-20T04:14:27;15.98;;;10.82;;
6475;SDS011;3271;51.910;5.840;2023-03-20T04:16:53;13.82;;;9.88;;
6475;SDS011;3271;51.910;5.840;2023-03-20T04:19:19;14.88;;;10.82;;
6475;SDS011;3271;51.910;5.840;2023-03-20T04:21:45;14.70;;;10.38;;
6475;SDS011;3271;51.910;5.840;2023-03-20T04:24:11;13.02;;;9.50;;
6475;SDS011;3271;51.910;5.840;2023-03-20T04:26:37;15.30;;;10.68;;
6475;SDS011;3271;51.910;5.840;2023-03-20T04:29:04;16.17;;;11.98;;
6475;SDS011;3271;51.910;5.840;2023-03-20T04:31:30;15.15;;;10.57;;
6475;SDS011;3271;51.910;5.840;2023-03-20T04:33:56;15.50;;;11.23;;
6475;SDS011;3271;51.910;5.840;2023-03-20T04:36:22;16.60;;;10.50;;
6475;SDS011;3271;51.910;5.840;2023-03-20T04:38:48;17.48;;;10.80;;
6475;SDS011;3271;51.910;5.840;2023-03-20T04:41:14;14.15;;;9.82;;
6475;SDS011;3271;51.910;5.840;2023-03-20T04:43:40;11.18;;;8.73;;
6475;SDS011;3271;51.910;5.840;2023-03-20T04:46:06;13.98;;;9.88;;
6475;SDS011;3271;51.910;5.840;2023-03-20T04:48:32;12.95;;;9.23;;
6475;SDS011;3271;51.910;5.840;2023-03-20T04:50:58;14.02;;;10.32;;
6475;SDS011;3271;51.910;5.840;2023-03-20T04:53:24;15.75;;;9.00;;
6475;SDS011;3271;51.910;5.840;2023-03-20T04:55:50;12.02;;;8.57;;
6475;SDS011;3271;51.910;5.840;2023-03-20T04:58:16;11.50;;;8.25;;
6475;SDS011;3271;51.910;5.840;2023-03-20T05:00:42;10.88;;;8.07;;
6475;SDS011;3271;51.910;5.840;2023-03-20T05:03:09;11.95;;;7.65;;
6475;SDS011;3271;51.910;5.840;2023-03-20T05:05:35;10.93;;;8.88;;
6475;SDS011;3271;51.910;5.840;2023-03-20T05:08:02;10.35;;;8.10;;
6475;SDS011;3271;51.910;5.840;2023-03-20T05:10:28;10.32;;;8.18;;
6475;SDS011;3271;51.910;5.840;2023-03-20T05:12:54;11.52;;;8.10;;
6475;SDS011;3271;51.910;5.840;2023-03-20T05:15:20;12.27;;;7.68;;
6475;SDS011;3271;51.910;5.840;2023-03-20T05:17:46;9.75;;;7.57;;
6475;SDS011;3271;51.910;5.840;2023-03-20T05:20:12;12.07;;;7.60;;
6475;SDS011;3271;51.910;5.840;2023-03-20T05:22:38;12.32;;;8.93;;
6475;SDS011;3271;51.910;5.840;2023-03-20T05:25:04;10.20;;;7.28;;
6475;SDS011;3271;51.910;5.840;2023-03-20T05:27:31;9.35;;;6.78;;
6475;SDS011;3271;51.910;5.840;2023-03-20T05:29:56;11.40;;;7.43;;
6475;SDS011;3271;51.910;5.840;2023-03-20T05:32:22;10.45;;;7.93;;
6475;SDS011;3271;51.910;5.840;2023-03-20T05:34:48;11.07;;;8.18;;
6475;SDS011;3271;51.910;5.840;2023-03-20T05:37:14;12.55;;;6.97;;
6475;SDS011;3271;51.910;5.840;2023-03-20T05:39:40;12.30;;;8.55;;
6475;SDS011;3271;51.910;5.840;2023-03-20T05:42:06;9.98;;;7.05;;
6475;SDS011;3271;51.910;5.840;2023-03-20T05:44:32;9.60;;;7.25;;
6475;SDS011;3271;51.910;5.840;2023-03-20T05:46:58;10.20;;;7.05;;
6475;SDS011;3271;51.910;5.840;2023-03-20T05:49:24;11.55;;;7.13;;
6475;SDS011;3271;51.910;5.840;2023-03-20T05:51:50;10.43;;;6.85;;
6475;SDS011;3271;51.910;5.840;2023-03-20T05:54:16;13.90;;;8.52;;
6475;SDS011;3271;51.910;5.840;2023-03-20T05:56:41;10.82;;;6.80;;
6475;SDS011;3271;51.910;5.840;2023-03-20T05:59:07;9.55;;;7.25;;
6475;SDS011;3271;51.910;5.840;2023-03-20T06:01:33;13.45;;;7.43;;
6475;SDS011;3271;51.910;5.840;2023-03-20T06:03:59;8.32;;;6.85;;
6475;SDS011;3271;51.910;5.840;2023-03-20T06:06:25;9.73;;;7.72;;
6475;SDS011;3271;51.910;5.840;2023-03-20T06:08:51;10.73;;;6.72;;
6475;SDS011;3271;51.910;5.840;2023-03-20T06:11:17;13.43;;;8.35;;
6475;SDS011;3271;51.910;5.840;2023-03-20T06:13:43;8.25;;;6.43;;
6475;SDS011;3271;51.910;5.840;2023-03-20T06:16:09;10.88;;;7.72;;
6475;SDS011;3271;51.910;5.840;2023-03-20T06:18:35;10.63;;;7.72;;
6475;SDS011;3271;51.910;5.840;2023-03-20T06:21:03;9.60;;;7.07;;
6475;SDS011;3271;51.910;5.840;2023-03-20T06:23:29;9.82;;;7.60;;
6475;SDS011;3271;51.910;5.840;2023-03-20T06:25:55;8.05;;;6.65;;
6475;SDS011;3271;51.910;5.840;2023-03-20T06:28:21;12.35;;;7.72;;
6475;SDS011;3271;51.910;5.840;2023-03-20T06:30:49;11.02;;;6.97;;
6475;SDS011;3271;51.910;5.840;2023-03-20T06:33:15;9.32;;;6.53;;
6475;SDS011;3271;51.910;5.840;2023-03-20T06:35:41;10.73;;;7.22;;
6475;SDS011;3271;51.910;5.840;2023-03-20T06:38:07;10.48;;;7.28;;
6475;SDS011;3271;51.910;5.840;2023-03-20T06:40:33;9.27;;;7.07;;
6475;SDS011;3271;51.910;5.840;2023-03-20T06:43:00;9.80;;;7.38;;
6475;SDS011;3271;51.910;5.840;2023-03-20T06:45:26;8.65;;;7.13;;
6475;SDS011;3271;51.910;5.840;2023-03-20T06:47:51;9.20;;;6.85;;
6475;SDS011;3271;51.910;5.840;2023-03-20T06:50:17;9.07;;;6.82;;
6475;SDS011;3271;51.910;5.840;2023-03-20T06:52:43;11.15;;;7.20;;
6475;SDS011;3271;51.910;5.840;2023-03-20T06:55:09;13.43;;;7.40;;
6475;SDS011;3271;51.910;5.840;2023-03-20T06:57:35;10.32;;;7.22;;
6475;SDS011;3271;51.910;5.840;2023-03-20T07:00:02;11.02;;;7.68;;
6475;SDS011;3271;51.910;5.840;2023-03-20T07:02:28;10.68;;;6.88;;
6475;SDS011;3271;51.910;5.840;2023-03-20T07:04:54;11.60;;;7.70;;
6475;SDS011;3271;51.910;5.840;2023-03-20T07:07:20;10.02;;;6.50;;
6475;SDS011;3271;51.910;5.840;2023-03-20T07:09:46;12.00;;;7.03;;
6475;SDS011;3271;51.910;5.840;2023-03-20T07:12:13;10.25;;;6.10;;
6475;SDS011;3271;51.910;5.840;2023-03-20T07:14:40;8.60;;;6.43;;
6475;SDS011;3271;51.910;5.840;2023-03-20T07:17:06;11.15;;;7.18;;
6475;SDS011;3271;51.910;5.840;2023-03-20T07:19:33;11.82;;;7.07;;
6475;SDS011;3271;51.910;5.840;2023-03-20T07:21:59;10.95;;;6.38;;
6475;SDS011;3271;51.910;5.840;2023-03-20T07:24:26;10.52;;;7.00;;
6475;SDS011;3271;51.910;5.840;2023-03-20T07:26:52;9.52;;;6.80;;
6475;SDS011;3271;51.910;5.840;2023-03-20T07:29:18;10.52;;;6.72;;
6475;SDS011;3271;51.910;5.840;2023-03-20T07:31:44;10.75;;;6.88;;
6475;SDS011;3271;51.910;5.840;2023-03-20T07:34:11;12.05;;;6.70;;
6475;SDS011;3271;51.910;5.840;2023-03-20T07:36:37;9.23;;;6.30;;
6475;SDS011;3271;51.910;5.840;2023-03-20T07:39:03;11.77;;;8.23;;
6475;SDS011;3271;51.910;5.840;2023-03-20T07:41:29;10.45;;;6.22;;
6475;SDS011;3271;51.910;5.840;2023-03-20T07:43:55;10.73;;;6.20;;
6475;SDS011;3271;51.910;5.840;2023-03-20T07:46:21;8.85;;;6.30;;
6475;SDS011;3271;51.910;5.840;2023-03-20T07:48:47;11.15;;;5.97;;
6475;SDS011;3271;51.910;5.840;2023-03-20T07:51:12;9.63;;;6.82;;
6475;SDS011;3271;51.910;5.840;2023-03-20T07:53:38;8.38;;;6.03;;
6475;SDS011;3271;51.910;5.840;2023-03-20T07:56:04;8.85;;;5.82;;
6475;SDS011;3271;51.910;5.840;2023-03-20T07:58:30;9.50;;;6.75;;
6475;SDS011;3271;51.910;5.840;2023-03-20T08:00:57;6.95;;;5.90;;
6475;SDS011;3271;51.910;5.840;2023-03-20T08:03:26;12.07;;;6.63;;
6475;SDS011;3271;51.910;5.840;2023-03-20T08:05:52;11.63;;;6.40;;
6475;SDS011;3271;51.910;5.840;2023-03-20T08:08:18;11.07;;;6.47;;
6475;SDS011;3271;51.910;5.840;2023-03-20T08:10:44;10.23;;;5.82;;
6475;SDS011;3271;51.910;5.840;2023-03-20T08:13:10;9.50;;;5.90;;
6475;SDS011;3271;51.910;5.840;2023-03-20T08:15:36;7.90;;;5.90;;
6475;SDS011;3271;51.910;5.840;2023-03-20T08:18:02;10.13;;;5.78;;
6475;SDS011;3271;51.910;5.840;2023-03-20T08:20:28;9.18;;;5.88;;
6475;SDS011;3271;51.910;5.840;2023-03-20T08:22:55;8.32;;;6.10;;
6475;SDS011;3271;51.910;5.840;2023-03-20T08:25:21;7.53;;;5.75;;
6475;SDS011;3271;51.910;5.840;2023-03-20T08:27:47;8.95;;;6.32;;
6475;SDS011;3271;51.910;5.840;2023-03-20T08:30:13;7.60;;;5.50;;
6475;SDS011;3271;51.910;5.840;2023-03-20T08:32:40;12.57;;;5.50;;
6475;SDS011;3271;51.910;5.840;2023-03-20T08:35:06;8.52;;;5.35;;
6475;SDS011;3271;51.910;5.840;2023-03-20T08:37:32;10.45;;;5.30;;
6475;SDS011;3271;51.910;5.840;2023-03-20T08:39:58;9.63;;;5.00;;
6475;SDS011;3271;51.910;5.840;2023-03-20T08:42:24;9.45;;;5.35;;
6475;SDS011;3271;51.910;5.840;2023-03-20T08:44:51;7.43;;;4.97;;
6475;SDS011;3271;51.910;5.840;2023-03-20T08:47:16;11.55;;;5.80;;
6475;SDS011;3271;51.910;5.840;2023-03-20T08:49:43;9.23;;;5.68;;
6475;SDS011;3271;51.910;5.840;2023-03-20T08:52:09;9.95;;;5.63;;
6475;SDS011;3271;51.910;5.840;2023-03-20T08:54:35;8.80;;;4.90;;
6475;SDS011;3271;51.910;5.840;2023-03-20T08:57:01;10.50;;;5.35;;
6475;SDS011;3271;51.910;5.840;2023-03-20T08:59:27;8.70;;;5.07;;
6475;SDS011;3271;51.910;5.840;2023-03-20T09:01:53;8.70;;;5.05;;
6475;SDS011;3271;51.910;5.840;2023-03-20T09:04:19;8.98;;;5.43;;
6475;SDS011;3271;51.910;5.840;2023-03-20T09:06:45;8.43;;;5.43;;
6475;SDS011;3271;51.910;5.840;2023-03-20T09:09:11;10.45;;;4.30;;
6475;SDS011;3271;51.910;5.840;2023-03-20T09:11:40;5.68;;;3.97;;
6475;SDS011;3271;51.910;5.840;2023-03-20T09:14:06;8.80;;;4.75;;
6475;SDS011;3271;51.910;5.840;2023-03-20T09:16:32;9.52;;;4.80;;
6475;SDS011;3271;51.910;5.840;2023-03-20T09:18:57;6.28;;;4.22;;
6475;SDS011;3271;51.910;5.840;2023-03-20T09:21:23;7.85;;;4.18;;
6475;SDS011;3271;51.910;5.840;2023-03-20T09:23:50;7.88;;;4.38;;
6475;SDS011;3271;51.910;5.840;2023-03-20T09:26:15;6.07;;;3.97;;
6475;SDS011;3271;51.910;5.840;2023-03-20T09:28:41;5.28;;;3.75;;
6475;SDS011;3271;51.910;5.840;2023-03-20T09:31:07;7.30;;;4.38;;
6475;SDS011;3271;51.910;5.840;2023-03-20T09:33:33;7.60;;;4.07;;
6475;SDS011;3271;51.910;5.840;2023-03-20T09:35:59;6.47;;;4.05;;
6475;SDS011;3271;51.910;5.840;2023-03-20T09:38:25;9.27;;;5.00;;
6475;SDS011;3271;51.910;5.840;2023-03-20T09:41:01;6.43;;;4.03;;
6475;SDS011;3271;51.910;5.840;2023-03-20T09:46:04;8.18;;;5.03;;
6475;SDS011;3271;51.910;5.840;2023-03-20T09:48:57;8.52;;;4.85;;
6475;SDS011;3271;51.910;5.840;2023-03-20T09:51:34;9.13;;;4.63;;
6475;SDS011;3271;51.910;5.840;2023-03-20T09:54:02;9.55;;;4.72;;
6475;SDS011;3271;51.910;5.840;2023-03-20T09:56:31;9.38;;;4.50;;
6475;SDS011;3271;51.910;5.840;2023-03-20T09:58:58;8.00;;;5.00;;
6475;SDS011;3271;51.910;5.840;2023-03-20T10:01:26;9.55;;;4.78;;
6475;SDS011;3271;51.910;5.840;2023-03-20T10:03:58;9.55;;;4.20;;
6475;SDS011;3271;51.910;5.840;2023-03-20T10:06:25;5.82;;;4.30;;
6475;SDS011;3271;51.910;5.840;2023-03-20T10:08:51;8.60;;;5.30;;
6475;SDS011;3271;51.910;5.840;2023-03-20T10:14:13;8.52;;;5.13;;
6475;SDS011;3271;51.910;5.840;2023-03-20T10:21:53;8.63;;;5.53;;
6475;SDS011;3271;51.910;5.840;2023-03-20T10:24:23;8.23;;;4.55;;
6475;SDS011;3271;51.910;5.840;2023-03-20T10:26:52;5.47;;;3.92;;
6475;SDS011;3271;51.910;5.840;2023-03-20T10:29:24;7.72;;;4.68;;
6475;SDS011;3271;51.910;5.840;2023-03-20T10:32:03;10.70;;;4.32;;
6475;SDS011;3271;51.910;5.840;2023-03-20T10:34:39;6.63;;;4.00;;
6475;SDS011;3271;51.910;5.840;2023-03-20T10:39:53;7.80;;;4.20;;
6475;SDS011;3271;51.910;5.840;2023-03-20T10:42:23;5.70;;;3.38;;
6475;SDS011;3271;51.910;5.840;2023-03-20T10:45:03;7.70;;;3.60;;
6475;SDS011;3271;51.910;5.840;2023-03-20T10:47:32;7.30;;;3.22;;
6475;SDS011;3271;51.910;5.840;2023-03-20T10:50:18;5.57;;;3.03;;
6475;SDS011;3271;51.910;5.840;2023-03-20T10:52:47;4.90;;;3.28;;
6475;SDS011;3271;51.910;5.840;2023-03-20T10:55:20;5.80;;;3.25;;
6475;SDS011;3271;51.910;5.840;2023-03-20T10:57:48;6.13;;;3.50;;
6475;SDS011;3271;51.910;5.840;2023-03-20T11:00:17;5.60;;;3.38;;
6475;SDS011;3271;51.910;5.840;2023-03-20T11:02:44;4.53;;;3.15;;
6475;SDS011;3271;51.910;5.840;2023-03-20T11:05:24;6.43;;;2.90;;
6475;SDS011;3271;51.910;5.840;2023-03-20T11:08:03;6.15;;;3.20;;
6475;SDS011;3271;51.910;5.840;2023-03-20T11:10:31;4.70;;;3.20;;
6475;SDS011;3271;51.910;5.840;2023-03-20T11:12:57;5.20;;;3.53;;
6475;SDS011;3271;51.910;5.840;2023-03-20T11:15:26;5.55;;;3.80;;
6475;SDS011;3271;51.910;5.840;2023-03-20T11:17:59;5.85;;;3.55;;
6475;SDS011;3271;51.910;5.840;2023-03-20T11:20:26;6.05;;;3.53;;
6475;SDS011;3271;51.910;5.840;2023-03-20T11:22:56;53.15;;;36.35;;
6475;SDS011;3271;51.910;5.840;2023-03-20T11:25:27;35.30;;;23.00;;
6475;SDS011;3271;51.910;5.840;2023-03-20T11:27:54;6.75;;;4.65;;
6475;SDS011;3271;51.910;5.840;2023-03-20T11:30:20;5.88;;;4.32;;
6475;SDS011;3271;51.910;5.840;2023-03-20T11:32:47;13.82;;;7.80;;
6475;SDS011;3271;51.910;5.840;2023-03-20T11:35:18;11.10;;;5.93;;
6475;SDS011;3271;51.910;5.840;2023-03-20T11:37:45;5.18;;;3.00;;
6475;SDS011;3271;51.910;5.840;2023-03-20T11:42:37;9.23;;;5.03;;
6475;SDS011;3271;51.910;5.840;2023-03-20T11:45:16;11.38;;;6.13;;
6475;SDS011;3271;51.910;5.840;2023-03-20T11:47:42;8.20;;;3.85;;
6475;SDS011;3271;51.910;5.840;2023-03-20T11:52:50;7.40;;;3.97;;
6475;SDS011;3271;51.910;5.840;2023-03-20T11:55:30;5.75;;;3.90;;
6475;SDS011;3271;51.910;5.840;2023-03-20T11:57:57;6.50;;;3.67;;
6475;SDS011;3271;51.910;5.840;2023-03-20T12:00:24;3.50;;;2.80;;
6475;SDS011;3271;51.910;5.840;2023-03-20T12:02:50;5.65;;;3.28;;
6475;SDS011;3271;51.910;5.840;2023-03-20T12:07:56;8.25;;;3.10;;
6475;SDS011;3271;51.910;5.840;2023-03-20T12:10:24;5.00;;;3.15;;
6475;SDS011;3271;51.910;5.840;2023-03-20T12:13:03;8.38;;;4.28;;
6475;SDS011;3271;51.910;5.840;2023-03-20T12:15:32;8.10;;;4.32;;
6475;SDS011;3271;51.910;5.840;2023-03-20T12:20:44;6.95;;;4.22;;
6475;SDS011;3271;51.910;5.840;2023-03-20T12:23:12;10.25;;;4.60;;
6475;SDS011;3271;51.910;5.840;2023-03-20T12:25:49;6.85;;;3.83;;
6475;SDS011;3271;51.910;5.840;2023-03-20T12:28:19;5.97;;;3.63;;
6475;SDS011;3271;51.910;5.840;2023-03-20T12:36:03;7.20;;;4.32;;
6475;SDS011;3271;51.910;5.840;2023-03-20T12:38:32;7.15;;;4.60;;
6475;SDS011;3271;51.910;5.840;2023-03-20T12:41:15;8.80;;;4.28;;
6475;SDS011;3271;51.910;5.840;2023-03-20T12:46:30;7.85;;;4.45;;
6475;SDS011;3271;51.910;5.840;2023-03-20T12:51:43;8.07;;;4.05;;
6475;SDS011;3271;51.910;5.840;2023-03-20T12:54:21;8.63;;;4.57;;
6475;SDS011;3271;51.910;5.840;2023-03-20T12:59:19;7.78;;;4.57;;
6475;SDS011;3271;51.910;5.840;2023-03-20T13:01:53;8.27;;;4.75;;
6475;SDS011;3271;51.910;5.840;2023-03-20T13:07:15;8.00;;;4.50;;
6475;SDS011;3271;51.910;5.840;2023-03-20T13:14:57;6.70;;;4.10;;
6475;SDS011;3271;51.910;5.840;2023-03-20T13:17:38;11.73;;;4.65;;
6475;SDS011;3271;51.910;5.840;2023-03-20T13:25:33;10.63;;;5.40;;
6475;SDS011;3271;51.910;5.840;2023-03-20T13:28:06;9.82;;;5.28;;
6475;SDS011;3271;51.910;5.840;2023-03-20T13:30:35;9.60;;;4.90;;
6475;SDS011;3271;51.910;5.840;2023-03-20T13:33:39;12.18;;;5.65;;
6475;SDS011;3271;51.910;5.840;2023-03-20T13:38:32;9.75;;;4.68;;
6475;SDS011;3271;51.910;5.840;2023-03-20T13:41:00;8.38;;;4.75;;
6475;SDS011;3271;51.910;5.840;2023-03-20T13:43:30;10.98;;;4.55;;
6475;SDS011;3271;51.910;5.840;2023-03-20T13:46:08;9.30;;;4.47;;
6475;SDS011;3271;51.910;5.840;2023-03-20T13:48:38;8.30;;;4.38;;
6475;SDS011;3271;51.910;5.840;2023-03-20T13:53:54;10.18;;;4.68;;
6475;SDS011;3271;51.910;5.840;2023-03-20T13:58:59;11.23;;;4.93;;
6475;SDS011;3271;51.910;5.840;2023-03-20T14:01:30;5.97;;;4.07;;
6475;SDS011;3271;51.910;5.840;2023-03-20T14:04:00;11.65;;;5.03;;
6475;SDS011;3271;51.910;5.840;2023-03-20T14:08:56;9.38;;;5.43;;
6475;SDS011;3271;51.910;5.840;2023-03-20T14:13:55;8.02;;;4.60;;
6475;SDS011;3271;51.910;5.840;2023-03-20T14:16:22;10.80;;;5.00;;
6475;SDS011;3271;51.910;5.840;2023-03-20T14:19:03;10.18;;;5.43;;
6475;SDS011;3271;51.910;5.840;2023-03-20T14:21:30;7.65;;;5.03;;
6475;SDS011;3271;51.910;5.840;2023-03-20T14:23:56;8.85;;;5.10;;
6475;SDS011;3271;51.910;5.840;2023-03-20T14:26:26;8.85;;;4.97;;
6475;SDS011;3271;51.910;5.840;2023-03-20T14:28:57;12.98;;;5.50;;
6475;SDS011;3271;51.910;5.840;2023-03-20T14:31:25;11.68;;;5.30;;
6475;SDS011;3271;51.910;5.840;2023-03-20T14:33:59;10.30;;;5.78;;
6475;SDS011;3271;51.910;5.840;2023-03-20T14:36:27;7.68;;;5.10;;
6475;SDS011;3271;51.910;5.840;2023-03-20T14:39:03;9.07;;;5.45;;
6475;SDS011;3271;51.910;5.840;2023-03-20T14:43:59;12.15;;;5.22;;
6475;SDS011;3271;51.910;5.840;2023-03-20T14:49:22;12.50;;;5.55;;
6475;SDS011;3271;51.910;5.840;2023-03-20T14:51:49;12.80;;;6.28;;
6475;SDS011;3271;51.910;5.840;2023-03-20T14:54:23;7.10;;;5.07;;
6475;SDS011;3271;51.910;5.840;2023-03-20T14:56:50;9.38;;;5.10;;
6475;SDS011;3271;51.910;5.840;2023-03-20T14:59:17;10.05;;;5.85;;
6475;SDS011;3271;51.910;5.840;2023-03-20T15:04:21;10.35;;;6.13;;
6475;SDS011;3271;51.910;5.840;2023-03-20T15:06:52;9.27;;;5.32;;
6475;SDS011;3271;51.910;5.840;2023-03-20T15:09:19;9.88;;;4.43;;
6475;SDS011;3271;51.910;5.840;2023-03-20T15:11:47;9.05;;;5.55;;
6475;SDS011;3271;51.910;5.840;2023-03-20T15:14:17;8.57;;;5.05;;
6475;SDS011;3271;51.910;5.840;2023-03-20T15:16:45;6.95;;;4.80;;
6475;SDS011;3271;51.910;5.840;2023-03-20T15:19:21;8.98;;;4.45;;
6475;SDS011;3271;51.910;5.840;2023-03-20T15:21:47;9.05;;;5.03;;
6475;SDS011;3271;51.910;5.840;2023-03-20T15:24:20;9.65;;;5.68;;
6475;SDS011;3271;51.910;5.840;2023-03-20T15:26:49;7.78;;;4.63;;
6475;SDS011;3271;51.910;5.840;2023-03-20T15:29:16;9.98;;;5.43;;
6475;SDS011;3271;51.910;5.840;2023-03-20T15:31:43;8.90;;;4.75;;
6475;SDS011;3271;51.910;5.840;2023-03-20T15:34:22;8.65;;;5.30;;
6475;SDS011;3271;51.910;5.840;2023-03-20T15:36:49;8.95;;;5.47;;
6475;SDS011;3271;51.910;5.840;2023-03-20T15:41:46;11.02;;;4.65;;
6475;SDS011;3271;51.910;5.840;2023-03-20T15:44:22;15.60;;;6.70;;
6475;SDS011;3271;51.910;5.840;2023-03-20T15:46:52;11.55;;;4.90;;
6475;SDS011;3271;51.910;5.840;2023-03-20T15:49:19;9.13;;;4.75;;
6475;SDS011;3271;51.910;5.840;2023-03-20T15:51:46;9.48;;;4.90;;
6475;SDS011;3271;51.910;5.840;2023-03-20T15:54:12;8.23;;;4.75;;
6475;SDS011;3271;51.910;5.840;2023-03-20T15:56:41;9.57;;;4.22;;
6475;SDS011;3271;51.910;5.840;2023-03-20T15:59:10;9.43;;;4.68;;
6475;SDS011;3271;51.910;5.840;2023-03-20T16:01:38;6.20;;;4.32;;
6475;SDS011;3271;51.910;5.840;2023-03-20T16:04:04;7.97;;;4.28;;
6475;SDS011;3271;51.910;5.840;2023-03-20T16:06:30;8.93;;;4.88;;
6475;SDS011;3271;51.910;5.840;2023-03-20T16:08:57;7.50;;;4.20;;
6475;SDS011;3271;51.910;5.840;2023-03-20T16:11:23;7.82;;;4.43;;
6475;SDS011;3271;51.910;5.840;2023-03-20T16:13:50;10.68;;;4.40;;
6475;SDS011;3271;51.910;5.840;2023-03-20T16:16:17;10.90;;;4.82;;
6475;SDS011;3271;51.910;5.840;2023-03-20T16:18:44;11.98;;;5.05;;
6475;SDS011;3271;51.910;5.840;2023-03-20T16:23:46;7.57;;;4.72;;
6475;SDS011;3271;51.910;5.840;2023-03-20T16:26:16;9.70;;;5.75;;
6475;SDS011;3271;51.910;5.840;2023-03-20T16:28:49;7.72;;;4.45;;
6475;SDS011;3271;51.910;5.840;2023-03-20T16:31:26;10.10;;;4.60;;
6475;SDS011;3271;51.910;5.840;2023-03-20T16:33:56;11.15;;;4.88;;
6475;SDS011;3271;51.910;5.840;2023-03-20T16:36:31;6.32;;;4.28;;
6475;SDS011;3271;51.910;5.840;2023-03-20T16:39:04;12.73;;;5.55;;
6475;SDS011;3271;51.910;5.840;2023-03-20T16:41:32;12.57;;;4.75;;
6475;SDS011;3271;51.910;5.840;2023-03-20T16:43:58;10.00;;;4.40;;
6475;SDS011;3271;51.910;5.840;2023-03-20T16:46:25;7.15;;;4.47;;
6475;SDS011;3271;51.910;5.840;2023-03-20T16:48:55;9.35;;;4.03;;
6475;SDS011;3271;51.910;5.840;2023-03-20T16:51:22;10.40;;;4.93;;
6475;SDS011;3271;51.910;5.840;2023-03-20T16:53:49;8.45;;;3.75;;
6475;SDS011;3271;51.910;5.840;2023-03-20T16:56:24;8.07;;;4.88;;
6475;SDS011;3271;51.910;5.840;2023-03-20T16:58:50;7.60;;;4.28;;
6475;SDS011;3271;51.910;5.840;2023-03-20T17:01:17;8.38;;;4.50;;